Jepson Prairie Reserve, California Weather observations

Data are for 10 minute period ending at time listed.
 Day   Time   Solar   Ave.   Ave.  Ave.  Vector  Max.   Baro.   Total    
  of    of     Rad.   Air    Rel.  Wind   Wind   Wind  Press.  Precip.   
Year   Day            Temp.  Hum.  Speed  Dir.   Gust                    
2016   (PST)  Kw/m2    F      %     mph   deg.    mph    mb.     in.     
-------------------------------------------------------------------------
 269    3:10   0.00   56.6    65    5.9    45     7.2   1014.2    0.00 
 269    3:20   0.00   56.8    67    8.2    50     9.7   1014.2    0.00 
 269    3:30   0.00   57.1    69    7.3    34     9.1   1013.9    0.00 
 269    3:40   0.00   57.3    68    9.0    42    11.3   1013.9    0.00 
 269    3:50   0.00   57.9    67   10.3    41    11.6   1013.9    0.00 
 269    4:00   0.00   57.6    68    8.0    52    11.4   1013.9    0.00 
 269    4:10   0.00   56.9    70    1.8   196     3.7   1014.2    0.00 
 269    4:20   0.00   58.4    69    3.4    74     5.7   1014.2    0.00 
 269    4:30   0.00   58.3    68    0.3    37     1.7   1014.2    0.00 
 269    4:40   0.00   57.7    69    2.3   269     4.4   1014.2    0.00 
 269    4:50   0.00   59.9    73    2.7   325     4.7   1014.2    0.00 
 269    5:00   0.00   58.5    68    2.4     1     4.9   1014.2    0.00 
 269    5:10   0.00   58.2    68    1.7    11     2.6   1014.6    0.00 
 269    5:20   0.00   55.9    68    2.4   317     3.3   1014.6    0.00 
 269    5:30   0.00   53.4    67    3.3   330     4.7   1014.6    0.00 
 269    5:40   0.00   53.1    66    3.7   345     5.3   1014.6    0.00 
 269    5:50   0.00   53.8    65    3.7   332     5.8   1014.6    0.00 
 269    6:00   0.00   52.9    64    4.6     5     6.5   1014.9    0.00 
 269    6:10   0.01   50.6    69    5.3    77     6.8   1014.9    0.00 
 269    6:20   0.03   51.0    73    5.0    74     6.2   1014.9    0.00 
 269    6:30   0.06   53.6    72    4.6    59     5.8   1014.9    0.00 
 269    6:40   0.08   54.3    71    5.6    54     6.1   1014.9    0.00 
 269    6:50   0.11   55.9    70    3.6    40     5.7   1015.2    0.00 
 269    7:00   0.14   58.4    66    3.6     6     7.7   1015.2    0.00 
 269    7:10   0.17   59.9    62    6.7    10     8.7   1015.2    0.00 
 269    7:20   0.20   61.6    61    6.8    22     8.8   1015.6    0.00 
 269    7:30   0.23   63.6    58    7.8    26     9.9   1015.6    0.00 
 269    7:40   0.26   64.8    56    9.1    29    10.7   1015.6    0.00 
 269    7:50   0.29   65.6    56    9.6    30    12.0   1015.9    0.00 
 269    8:00   0.33   67.7    57    9.1    28    11.5   1015.9    0.00 
 269    8:10   0.36   68.9    57    8.4    41    10.9   1016.3    0.00 
 269    8:20   0.39   69.7    56    9.2    38    11.0   1016.3    0.00 
 269    8:30   0.42   71.3    54    9.3    42    11.7   1016.6    0.00 
 269    8:40   0.45   72.5    54    8.5    46    10.5   1016.6    0.00 
 269    8:50   0.47   73.4    53    8.4    41    10.7   1016.6    0.00 
 269    9:00   0.50   74.4    52    8.1    45    10.5   1016.6    0.00 
 269    9:10   0.53   75.4    51    7.9    45    10.2   1016.9    0.00 
 269    9:20   0.55   76.3    50    7.6    50    10.4   1016.9    0.00 
 269    9:30   0.58   77.6    48    7.0    49     9.9   1016.9    0.00 
 269    9:40   0.60   78.4    47    6.8    52     9.4   1016.9    0.00 
 269    9:50   0.62   78.6    46    7.3    44     9.9   1016.9    0.00 
 269   10:00   0.64   79.7    44    7.6    50    12.1   1016.9    0.00 
 269   10:10   0.66   80.4    42    7.8    53    11.8   1016.6    0.00 
 269   10:20   0.68   81.5    40    7.6    56    11.2   1016.6    0.00 
 269   10:30   0.69   81.4    39    8.4    45    11.0   1016.6    0.00 
 269   10:40   0.70   81.7    38    8.8    46    12.1   1016.6    0.00 
 269   10:50   0.72   83.1    33    8.7    45    11.0   1016.3    0.00 
 269   11:00   0.73   84.0    34    8.9    53    12.0   1016.3    0.00 
 269   11:10   0.74   84.6    34    9.4    54    12.4   1015.9    0.00 
 269   11:20   0.75   85.5    34    8.0    56    11.2   1015.9    0.00 
 269   11:30   0.75   86.3    32    7.9    37    11.2   1015.9    0.00 
 269   11:40   0.76   86.9    33    7.3    45    11.5   1015.9    0.00 
 269   11:50   0.76   87.8    30    5.2    50     9.6   1015.6    0.00 
 269   12:00   0.76   88.6    28    4.7    23     8.3   1015.6    0.00 
 269   12:10   0.76   89.4    25    5.6     3     9.9   1015.2    0.00 
 269   12:20   0.76   90.8    25    5.6    10    11.2   1014.9    0.00 
 269   12:30   0.75   95.6    27    4.8    44     9.0   1014.9    0.00 
 269   12:40   0.75   94.6    27    3.2    33     8.3   1014.6    0.00 
 269   12:50   0.74   93.7    27    4.0    15     7.5   1014.6    0.00 
 269   13:00   0.73   95.8    28    3.9     8     6.3   1014.2    0.00 
 269   13:10   0.72   94.8    28    5.3    46     9.0   1014.2    0.00 
 269   13:20   0.71   96.9    29    5.5    60     9.3   1014.2    0.00 
 269   13:30   0.70   95.6    27    3.7    60     7.6   1013.9    0.00 
 269   13:40   0.68   94.8    24    3.8    74     7.2   1013.9    0.00 
 269   13:50   0.66   95.3    24    4.5    13    10.7   1013.9    0.00 
 269   14:00   0.64   95.4    23    4.7    13     7.3   1013.5    0.00 
 269   14:10   0.62   96.4    22    4.6    47     7.7   1013.5    0.00 
 269   14:20   0.60   96.5    22    3.0    54     7.4   1013.5    0.00 
 269   14:30   0.58   97.2    22    4.7    11     8.8   1013.5    0.00 
 269   14:40   0.56   98.2    24    3.5    22     6.7   1013.5    0.00 
 269   14:50   0.53   97.3    21    3.5    26     8.0   1013.5    0.00 
 269   15:00   0.51   97.2    21    4.6    62     9.0   1013.2    0.00 
 269   15:10   0.48   98.2    23    5.4    51     8.0   1013.2    0.00 
 269   15:20   0.45   95.3    22    4.7    62     8.1   1013.2    0.00 
 269   15:30   0.42   95.9    21    4.7    64     8.0   1013.2    0.00 
 269   15:40   0.39   95.6    20    5.0    61     8.9   1012.9    0.00 
 269   15:50   0.36   95.7    20    5.8    73     8.3   1012.9    0.00 
 269   16:00   0.33   95.8    20    5.2    68     7.7   1012.9    0.00 
 269   16:10   0.30   95.6    22    5.6    62     7.4   1012.5    0.00 
 269   16:20   0.27   95.8    20    5.3    67     7.4   1012.5    0.00 
 269   16:30   0.24   95.8    19    4.8    65     6.3   1012.5    0.00 
 269   16:40   0.20   96.0    20    5.7    73     7.8   1012.5    0.00 
 269   16:50   0.17   95.1    22    6.7    88     8.2   1012.2    0.00 
 269   17:00   0.14   94.6    23    7.3    93     8.5   1012.2    0.00 
 269   17:10   0.11   93.5    25    7.1    89     8.4   1012.2    0.00 
 269   17:20   0.08   92.6    26    6.3    79     7.3   1012.2    0.00 
 269   17:30   0.06   90.4    29    6.3    93     7.5   1011.9    0.00 
 269   17:40   0.03   88.7    33    5.1    87     6.4   1011.9    0.00 
 269   17:50   0.02   87.7    33    3.9    95     5.0   1011.9    0.00 
 269   18:00   0.01   86.1    35    4.6    88     5.0   1011.9    0.00 
 269   18:10   0.00   83.6    38    3.8    90     5.3   1012.2    0.00 
 269   18:20   0.00   82.1    40    2.4   129     3.9   1012.2    0.00 
 269   18:30   0.00   81.9    40    3.3   134     4.0   1012.5    0.00 
 269   18:40   0.00   80.7    41    3.1   157     3.7   1012.5    0.00 
 269   18:50   0.00   78.0    42    3.4   196     4.8   1012.5    0.00 
 269   19:00   0.00   74.6    42    5.4   212     6.7   1012.5    0.00 
 269   19:10   0.00   73.2    43    7.3   225     8.0   1012.5    0.00 
 269   19:20   0.00   72.1    43    8.1   228     8.8   1012.9    0.00 
 269   19:30   0.00   71.7    44    9.0   235    10.7   1012.9    0.00 
 269   19:40   0.00   71.4    44    8.5   228     9.7   1012.9    0.00 
 269   19:50   0.00   70.2    44    8.6   227     9.1   1012.9    0.00 
 269   20:00   0.00   69.5    44    8.9   227     9.9   1012.9    0.00 
 269   20:10   0.00   69.5    45    8.2   225     9.5   1012.5    0.00 
 269   20:20   0.00   70.1    45    7.7   218     8.7   1012.5    0.00 
 269   20:30   0.00   69.9    46    8.6   203     9.7   1012.5    0.00 
 269   20:40   0.00   68.9    48    9.0   195    10.1   1012.2    0.00 
 269   20:50   0.00   68.6    48    6.3   203     7.4   1012.2    0.00 
 269   21:00   0.00   69.1    47    7.9   203     8.9   1012.2    0.00 
 269   21:10   0.00   68.4    47    9.0   200    10.7   1011.9    0.00 
 269   21:20   0.00   71.2    43   11.1   201    13.3   1011.9    0.00 
 269   21:30   0.00   74.8    40   11.8   201    13.5   1011.9    0.00 
 269   21:40   0.00   75.5    39   12.5   202    14.8   1011.9    0.00 
 269   21:50   0.00   75.3    40   12.5   199    14.4   1011.9    0.00 
 269   22:00   0.00   74.6    42   11.4   196    13.8   1011.9    0.00 
 269   22:10   0.00   74.1    42   11.5   198    13.5   1011.9    0.00 
 269   22:20   0.00   74.3    40   11.4   194    13.8   1011.9    0.00 
 269   22:30   0.00   73.5    41   11.5   191    14.0   1011.9    0.00 
 269   22:40   0.00   73.9    39   12.0   191    14.2   1011.9    0.00 
 269   22:50   0.00   73.9    39   12.5   195    15.3   1011.9    0.00 
 269   23:00   0.00   75.1    37   12.4   193    16.1   1011.9    0.00 
 269   23:10   100.00  99999.0   99999  99999.0   99999   99999.0   99999.0   99999.00 
 269   23:20   100.00  99999.0   99999  99999.0   99999   99999.0   99999.0   99999.00 
 269   23:30   100.00  99999.0   99999  99999.0   99999   99999.0   99999.0   99999.00 
 269   23:40   100.00  99999.0   99999  99999.0   99999   99999.0   99999.0   99999.00 
 269   23:50   100.00  99999.0   99999  99999.0   99999   99999.0   99999.0   99999.00 
 270    0:00   0.00   75.0    33   11.2   190    13.6   1012.2    0.00 
 270    0:10   0.00   74.1    33    8.7   202    11.2   1012.2    0.00 
 270    0:20   0.00   73.8    34   10.4   204    12.9   1011.9    0.00 
 270    0:30   0.00   73.2    35   10.1   202    11.9   1012.2    0.00 
 270    0:40   0.00   72.2    36    6.1   187    10.3   1012.2    0.00 
 270    0:50   0.00   70.6    36    2.9    63     6.6   1012.2    0.00 
 270    1:00   0.00   69.0    40    4.0    40     6.6   1012.2    0.00 
 270    1:10   0.00   66.2    49    5.2    52     6.3   1012.5    0.00 
 270    1:20   0.00   65.1    55    4.7    59     6.4   1012.2    0.00 
 270    1:30   0.00   64.4    59    4.7    68     6.8   1012.2    0.00 
 270    1:40   0.00   63.8    62    3.7    93     6.8   1012.2    0.00 
 270    1:50   0.00   63.1    65    3.7    95     5.6   1012.2    0.00 
 270    2:00   0.00   62.2    65    5.2   104     5.9   1012.2    0.00 
 270    2:10   0.00   61.4    68    5.4   118     6.5   1011.9    0.00 
 270    2:20   0.00   62.1    71    3.9   161     5.6   1011.9    0.00 
 270    2:30   0.00   62.0    71    4.4   172     5.6   1011.9    0.00 
 270    2:40   0.00   60.9    69    5.2   178     6.8   1011.9    0.00 
 270    2:50   0.00   59.8    65    3.8   221     5.9   1011.9    0.00 
 270    3:00   0.00   61.1    57    5.8   219     6.9   1011.9    0.00 

Return to Jepson Prairie Reserve graphs page.


Western Regional Climate Center,wrcc@dri.edu